Time;durP1;ratioP1;P1;durP2;ratioP2;P2;SDS_P1;SDS_P2;PMS_P1;PMS_P2;Temp;Humidity;BMP_temperature;BMP_pressure;BME280_temperature;BME280_humidity;BME280_pressure;Samples;Min_cycle;Max_cycle;Signal;HPM_P1;HPM_P2
2022/05/08 00:02:08;;;;;;;23.65;5.53;;;5.20;99.90;;;;;;5016537;28;20038;-42
2022/05/08 00:04:34;;;;;;;20.20;5.00;;;5.20;99.90;;;;;;5017897;28;20065;-41
2022/05/08 00:07:00;;;;;;;21.52;5.25;;;5.10;99.90;;;;;;5015170;28;20194;-41
2022/05/08 00:09:25;;;;;;;24.13;5.43;;;5.90;99.90;;;;;;5017960;28;20117;-42
2022/05/08 00:11:52;;;;;;;27.90;6.55;;;5.00;99.90;;;;;;5030864;28;20072;-42
2022/05/08 00:14:18;;;;;;;25.02;5.50;;;5.00;99.90;;;;;;5017206;28;20033;-42
2022/05/08 00:16:44;;;;;;;20.20;4.95;;;5.00;99.90;;;;;;5017153;28;20516;-46
2022/05/08 00:19:10;;;;;;;26.88;6.70;;;4.20;99.90;;;;;;5015870;28;20099;-43
2022/05/08 00:21:36;;;;;;;26.23;4.55;;;4.80;99.90;;;;;;5017236;28;20404;-42
2022/05/08 00:24:02;;;;;;;23.48;5.13;;;4.70;99.90;;;;;;5017215;28;20069;-43
2022/05/08 00:26:27;;;;;;;22.42;5.45;;;4.50;99.90;;;;;;5017652;28;20041;-42
2022/05/08 00:28:53;;;;;;;16.92;4.88;;;4.60;99.90;;;;;;5015217;28;20034;-43
2022/05/08 00:31:19;;;;;;;21.17;5.05;;;4.50;99.90;;;;;;5016387;28;20441;-44
2022/05/08 00:33:44;;;;;;;22.38;6.03;;;4.90;99.90;;;;;;5016377;28;20033;-42
2022/05/08 00:36:10;;;;;;;21.77;5.28;;;4.50;99.90;;;;;;5015679;28;20128;-44
2022/05/08 00:38:36;;;;;;;19.08;5.38;;;4.50;99.90;;;;;;5015868;28;20073;-47
2022/05/08 00:41:02;;;;;;;21.55;6.15;;;4.40;99.90;;;;;;5017035;28;20040;-42
2022/05/08 00:43:38;;;;;;;20.83;4.82;;;4.30;99.90;;;;;;5015611;28;20065;-42
2022/05/08 00:46:09;;;;;;;16.77;4.65;;;4.20;99.90;;;;;;5014787;28;20048;-42
2022/05/08 00:48:36;;;;;;;22.02;5.38;;;5.00;99.90;;;;;;5017657;28;20120;-42
2022/05/08 00:51:04;;;;;;;28.55;5.47;;;4.50;99.90;;;;;;5014237;28;20090;-42
2022/05/08 00:53:37;;;;;;;19.80;4.97;;;4.10;99.90;;;;;;5019119;28;20049;-42
2022/05/08 00:56:05;;;;;;;23.83;5.32;;;4.20;99.90;;;;;;5016256;28;20041;-43
2022/05/08 00:58:33;;;;;;;20.98;5.22;;;4.80;99.90;;;;;;5015561;28;20037;-42
2022/05/08 01:00:58;;;;;;;22.17;6.57;;;4.10;99.90;;;;;;5016532;28;20507;-43
2022/05/08 01:03:24;;;;;;;28.38;5.65;;;4.10;99.90;;;;;;5017050;28;20042;-43
2022/05/08 01:05:53;;;;;;;28.85;5.90;;;4.20;99.90;;;;;;5015423;28;20045;-42
2022/05/08 01:08:21;;;;;;;27.10;5.40;;;4.10;99.90;;;;;;5014924;28;20472;-42
2022/05/08 01:10:47;;;;;;;22.40;4.85;;;4.10;99.90;;;;;;5014676;28;20471;-42
2022/05/08 01:13:12;;;;;;;30.52;6.32;;;4.30;99.90;;;;;;5017346;28;20041;-43
2022/05/08 01:15:40;;;;;;;24.58;5.38;;;4.20;99.90;;;;;;5015594;28;20135;-41
2022/05/08 01:18:06;;;;;;;24.27;5.95;;;4.20;99.90;;;;;;5016316;28;20390;-43
2022/05/08 01:20:32;;;;;;;22.17;6.30;;;4.10;99.90;;;;;;5015832;28;20112;-43
2022/05/08 01:22:57;;;;;;;29.63;6.22;;;4.80;99.90;;;;;;5016452;28;20041;-42
2022/05/08 01:25:25;;;;;;;29.40;6.97;;;4.10;99.90;;;;;;5015654;28;20055;-42
2022/05/08 01:27:51;;;;;;;23.95;6.60;;;4.20;99.90;;;;;;5015261;28;20041;-42
2022/05/08 01:30:17;;;;;;;26.35;6.15;;;4.10;99.90;;;;;;5018204;28;20159;-42
2022/05/08 01:32:42;;;;;;;23.92;6.60;;;4.10;99.90;;;;;;5017108;28;20401;-41
2022/05/08 01:35:08;;;;;;;19.48;5.55;;;4.30;99.90;;;;;;5020860;28;20073;-41
2022/05/08 01:37:34;;;;;;;22.30;6.03;;;4.00;99.90;;;;;;5020554;28;20084;-42
2022/05/08 01:39:59;;;;;;;26.67;6.40;;;4.00;99.90;;;;;;5016221;28;20029;-43
2022/05/08 01:42:27;;;;;;;25.45;5.78;;;3.90;99.90;;;;;;5021231;28;20687;-42
2022/05/08 01:44:53;;;;;;;28.73;6.28;;;3.80;99.90;;;;;;5021504;28;20118;-41
2022/05/08 01:50:03;;;;;;;33.72;6.75;;;3.80;99.90;;;;;;5017807;28;20208;-48
2022/05/08 01:52:29;;;;;;;27.60;6.43;;;3.70;99.90;;;;;;5018310;28;20042;-43
2022/05/08 01:54:55;;;;;;;23.38;6.10;;;3.60;99.90;;;;;;5035829;28;20099;-43
2022/05/08 01:57:20;;;;;;;28.77;6.82;;;3.60;99.90;;;;;;5020374;28;20037;-41
2022/05/08 01:59:46;;;;;;;21.40;5.75;;;3.60;99.90;;;;;;5019063;28;20683;-42
2022/05/08 02:02:11;;;;;;;24.75;7.30;;;3.60;99.90;;;;;;5019730;28;20045;-41
2022/05/08 02:04:37;;;;;;;29.52;6.97;;;3.60;99.90;;;;;;5018062;28;21629;-42
2022/05/08 02:07:03;;;;;;;21.73;7.07;;;3.60;99.90;;;;;;5015635;28;20402;-42
2022/05/08 02:09:30;;;;;;;30.67;5.75;;;3.60;99.90;;;;;;5019617;28;20033;-42
2022/05/08 02:11:55;;;;;;;32.38;6.15;;;3.60;99.90;;;;;;5017742;28;20041;-43
2022/05/08 02:14:21;;;;;;;29.15;6.40;;;3.60;99.90;;;;;;5019147;28;20044;-43
2022/05/08 02:16:47;;;;;;;23.17;6.78;;;3.50;99.90;;;;;;5020312;28;20043;-42
2022/05/08 02:19:12;;;;;;;25.10;7.00;;;3.50;99.90;;;;;;5018313;28;20043;-42
2022/05/08 02:21:38;;;;;;;17.75;5.43;;;3.50;99.90;;;;;;5016667;28;20041;-42
2022/05/08 02:24:04;;;;;;;17.63;6.35;;;3.40;99.90;;;;;;5018669;28;20038;-42
2022/05/08 02:26:29;;;;;;;18.80;5.72;;;3.40;99.90;;;;;;5020096;28;20041;-42
2022/05/08 02:28:55;;;;;;;14.98;4.78;;;3.40;99.90;;;;;;5019472;28;20045;-42
2022/05/08 02:31:21;;;;;;;8.27;3.70;;;3.30;99.90;;;;;;5017414;28;20037;-41
2022/05/08 02:33:47;;;;;;;6.53;3.25;;;3.30;99.90;;;;;;5019266;28;20044;-42
2022/05/08 02:36:13;;;;;;;9.43;3.33;;;3.30;99.90;;;;;;5015872;28;20049;-46
2022/05/08 02:38:39;;;;;;;8.57;3.55;;;3.10;99.90;;;;;;5019493;28;20055;-43
2022/05/08 02:41:05;;;;;;;9.70;4.05;;;;;;;;;;5018416;28;20045;-42
2022/05/08 02:43:31;;;;;;;10.05;2.88;;;3.00;99.90;;;;;;5017897;28;20053;-41
2022/05/08 02:45:59;;;;;;;9.32;3.22;;;3.10;99.90;;;;;;5017738;28;20048;-43
2022/05/08 02:48:28;;;;;;;10.15;3.90;;;3.00;99.90;;;;;;5016210;28;20531;-42
2022/05/08 02:50:54;;;;;;;16.85;3.80;;;2.90;99.90;;;;;;5019199;28;20037;-42
2022/05/08 02:53:20;;;;;;;12.75;4.55;;;3.10;99.90;;;;;;5018411;28;20068;-41
2022/05/08 02:58:34;;;;;;;13.98;4.50;;;2.70;99.90;;;;;;5017442;28;20491;-42
2022/05/08 03:01:07;;;;;;;13.18;5.03;;;2.80;99.90;;;;;;5016845;28;20033;-42
2022/05/08 03:03:33;;;;;;;14.20;4.85;;;2.60;99.90;;;;;;5017387;28;20111;-42
2022/05/08 03:05:59;;;;;;;19.23;5.40;;;2.70;99.90;;;;;;5018864;28;20061;-41
2022/05/08 03:08:24;;;;;;;19.05;5.95;;;2.70;99.90;;;;;;5017656;28;20492;-42
2022/05/08 03:13:36;;;;;;;13.95;5.38;;;2.60;99.90;;;;;;5016860;28;20504;-41
2022/05/08 03:16:07;;;;;;;15.20;6.20;;;2.60;99.90;;;;;;5017187;28;20041;-42
2022/05/08 03:18:34;;;;;;;22.23;7.35;;;2.50;99.90;;;;;;5019601;28;20091;-44
2022/05/08 03:21:01;;;;;;;16.25;6.00;;;2.50;99.90;;;;;;5018014;28;20029;-41
2022/05/08 03:23:27;;;;;;;18.17;6.88;;;2.60;99.90;;;;;;5016125;28;20048;-41
2022/05/08 03:25:53;;;;;;;24.17;7.60;;;2.60;99.90;;;;;;5020469;28;20037;-41
2022/05/08 03:28:18;;;;;;;24.95;7.65;;;2.60;99.90;;;;;;5016402;28;20052;-42
2022/05/08 03:30:45;;;;;;;20.08;7.25;;;2.60;99.90;;;;;;5035018;28;20042;-43
2022/05/08 03:33:12;;;;;;;17.55;6.07;;;2.60;99.90;;;;;;5016821;28;20064;-42
2022/05/08 03:35:39;;;;;;;18.02;5.68;;;2.60;99.90;;;;;;5011989;28;20049;-42
2022/05/08 03:38:06;;;;;;;11.75;5.80;;;2.50;99.90;;;;;;5019823;28;20077;-41
2022/05/08 03:40:35;;;;;;;20.75;6.75;;;2.60;99.90;;;;;;5016106;28;20034;-42
2022/05/08 03:43:02;;;;;;;17.38;6.18;;;2.60;99.90;;;;;;5020051;28;20477;-42
2022/05/08 03:45:31;;;;;;;13.98;4.78;;;2.70;99.90;;;;;;5018675;28;20614;-41
2022/05/08 03:47:57;;;;;;;13.88;4.53;;;2.50;99.90;;;;;;5015588;28;20033;-43
2022/05/08 03:50:22;;;;;;;10.60;3.15;;;2.70;99.90;;;;;;5017051;28;20658;-41
2022/05/08 03:52:48;;;;;;;5.05;2.63;;;2.80;99.90;;;;;;5019521;28;20069;-48
2022/05/08 03:55:15;;;;;;;6.18;2.42;;;2.70;99.90;;;;;;5019024;28;20038;-43
2022/05/08 03:57:42;;;;;;;10.90;4.13;;;2.60;99.90;;;;;;5019907;28;20144;-41
2022/05/08 04:00:09;;;;;;;16.45;4.88;;;2.80;99.90;;;;;;5016472;28;20045;-41
2022/05/08 04:02:34;;;;;;;12.13;4.45;;;2.60;99.90;;;;;;5016793;28;20548;-43
2022/05/08 04:05:00;;;;;;;6.93;3.05;;;2.80;99.90;;;;;;5015020;28;20076;-44
2022/05/08 04:07:27;;;;;;;13.40;4.07;;;2.90;99.90;;;;;;5016096;28;20030;-42
2022/05/08 04:09:52;;;;;;;13.90;5.18;;;3.30;99.90;;;;;;5018414;28;20124;-42
2022/05/08 04:12:18;;;;;;;17.17;6.45;;;3.00;99.90;;;;;;5016656;28;20199;-43
2022/05/08 04:14:44;;;;;;;23.75;6.82;;;3.00;99.90;;;;;;4989654;28;20042;-42
2022/05/08 04:17:09;;;;;;;15.65;6.90;;;3.20;99.90;;;;;;5017080;28;20057;-45
2022/05/08 04:19:35;;;;;;;11.35;5.90;;;3.20;99.90;;;;;;5004366;28;20038;-42
2022/05/08 04:24:45;;;;;;;12.15;5.35;;;3.20;99.90;;;;;;5017774;28;20098;-43
2022/05/08 04:27:11;;;;;;;18.10;5.50;;;3.50;99.90;;;;;;5014712;28;20404;-42
2022/05/08 04:29:37;;;;;;;15.27;5.70;;;3.60;99.90;;;;;;5018099;28;20282;-47
2022/05/08 04:32:03;;;;;;;16.08;7.05;;;3.60;99.90;;;;;;5020723;28;20068;-42
2022/05/08 04:34:29;;;;;;;17.13;6.75;;;3.60;99.90;;;;;;5003849;28;20079;-43
2022/05/08 04:36:55;;;;;;;22.08;6.70;;;3.90;99.90;;;;;;5017709;28;20118;-42
2022/05/08 04:39:21;;;;;;;18.83;6.57;;;3.80;99.90;;;;;;5016980;28;20087;-43
2022/05/08 04:41:46;;;;;;;17.70;6.97;;;3.80;99.90;;;;;;5016120;28;20447;-44
2022/05/08 04:44:12;;;;;;;19.23;6.07;;;3.90;99.90;;;;;;5014759;28;20076;-48
2022/05/08 04:46:38;;;;;;;16.90;7.18;;;3.90;99.90;;;;;;5016318;28;20041;-42
2022/05/08 04:49:04;;;;;;;15.25;6.07;;;4.00;99.90;;;;;;5015109;28;20038;-41
2022/05/08 04:51:30;;;;;;;19.92;6.43;;;4.20;99.90;;;;;;5015752;28;20067;-41
2022/05/08 04:53:55;;;;;;;21.00;7.47;;;4.30;99.90;;;;;;5016439;28;20034;-42
2022/05/08 04:56:21;;;;;;;18.50;6.35;;;4.40;99.90;;;;;;5018002;28;20040;-42
2022/05/08 04:58:47;;;;;;;14.98;6.53;;;4.60;99.90;;;;;;5016980;28;20030;-42
2022/05/08 05:01:13;;;;;;;18.23;6.75;;;5.60;99.90;;;;;;5015462;28;20033;-42
2022/05/08 05:03:39;;;;;;;15.68;6.30;;;5.20;99.90;;;;;;5012967;28;20610;-50
2022/05/08 05:06:05;;;;;;;14.48;6.07;;;5.10;99.90;;;;;;5017565;28;20091;-43
2022/05/08 05:08:30;;;;;;;18.05;6.47;;;5.30;99.90;;;;;;5016907;28;20485;-43
2022/05/08 05:10:56;;;;;;;16.17;5.57;;;5.90;99.90;;;;;;5017338;28;20038;-42
2022/05/08 05:13:22;;;;;;;15.65;5.88;;;6.30;99.90;;;;;;5014762;28;20045;-42
2022/05/08 05:15:47;;;;;;;20.55;5.97;;;6.80;99.90;;;;;;5013590;28;20755;-43
2022/05/08 05:18:13;;;;;;;19.25;5.88;;;6.60;99.90;;;;;;5030635;28;20098;-43
2022/05/08 05:20:39;;;;;;;14.10;5.32;;;7.30;99.90;;;;;;5015321;28;20033;-43
2022/05/08 05:23:05;;;;;;;13.07;5.35;;;7.30;99.90;;;;;;5014742;28;20091;-42
2022/05/08 05:25:31;;;;;;;18.25;5.57;;;7.60;99.90;;;;;;5015605;28;20453;-42
2022/05/08 05:27:56;;;;;;;15.93;5.55;;;7.80;99.90;;;;;;5014965;28;20112;-46
2022/05/08 05:30:23;;;;;;;14.00;4.47;;;9.10;99.90;;;;;;5016309;28;20470;-43
2022/05/08 05:32:49;;;;;;;9.40;4.05;;;9.60;99.90;;;;;;5013908;28;20057;-43
2022/05/08 05:35:14;;;;;;;12.90;4.65;;;9.90;99.90;;;;;;5015425;28;20050;-42
2022/05/08 05:37:40;;;;;;;13.73;4.30;;;10.00;99.90;;;;;;5016528;28;20108;-43
2022/05/08 05:40:09;;;;;;;27.60;4.78;;;10.50;99.90;;;;;;5015713;28;20029;-42
2022/05/08 05:42:35;;;;;;;14.07;3.78;;;10.30;99.90;;;;;;5014716;28;20393;-43
2022/05/08 05:45:01;;;;;;;15.77;3.95;;;10.80;99.90;;;;;;5031607;28;20087;-42
2022/05/08 05:50:11;;;;;;;12.65;3.40;;;12.40;99.90;;;;;;5016096;28;20098;-43
2022/05/08 05:52:37;;;;;;;10.93;3.30;;;13.00;99.90;;;;;;5016001;28;20038;-43
2022/05/08 05:55:04;;;;;;;15.13;3.25;;;13.10;99.90;;;;;;5015286;28;20401;-43
2022/05/08 05:57:34;;;;;;;16.42;3.58;;;13.30;99.90;;;;;;5017195;28;20037;-44
2022/05/08 05:59:59;;;;;;;12.27;2.20;;;13.70;99.90;;;;;;5014687;28;20053;-49
2022/05/08 06:02:25;;;;;;;14.00;2.97;;;14.60;99.90;;;;;;5014093;28;20905;-45
2022/05/08 06:04:50;;;;;;;17.88;2.30;;;14.60;99.90;;;;;;5014058;28;20443;-43
2022/05/08 06:07:16;;;;;;;8.85;2.72;;;14.90;99.90;;;;;;5015071;28;20084;-44
2022/05/08 06:09:42;;;;;;;14.40;2.22;;;14.90;99.90;;;;;;5015842;28;20041;-42
2022/05/08 06:12:08;;;;;;;12.82;1.92;;;14.80;99.90;;;;;;5016884;28;20485;-42
2022/05/08 06:14:34;;;;;;;7.95;1.58;;;14.80;99.70;;;;;;5018431;28;20115;-43
2022/05/08 06:16:59;;;;;;;8.70;1.45;;;15.00;98.70;;;;;;5018013;28;20125;-43
2022/05/08 06:19:25;;;;;;;6.28;1.75;;;15.30;97.50;;;;;;5018184;28;20488;-42
2022/05/08 06:21:52;;;;;;;6.20;1.48;;;15.40;96.70;;;;;;5019129;28;20048;-43
2022/05/08 06:24:17;;;;;;;12.63;1.48;;;15.20;96.10;;;;;;5017556;28;20116;-43
2022/05/08 06:26:43;;;;;;;9.30;1.98;;;15.50;95.30;;;;;;5018730;28;20551;-42
2022/05/08 06:29:09;;;;;;;7.55;1.13;;;15.60;94.90;;;;;;5017766;28;20112;-42
2022/05/08 06:31:34;;;;;;;10.13;1.23;;;15.70;94.20;;;;;;5016145;28;20116;-42
2022/05/08 06:34:00;;;;;;;5.65;0.90;;;15.70;93.10;;;;;;5015710;28;20159;-43
2022/05/08 06:36:26;;;;;;;6.57;1.35;;;15.80;92.40;;;;;;5017840;28;20507;-45
2022/05/08 06:38:52;;;;;;;6.63;0.82;;;16.00;91.30;;;;;;5016622;28;20485;-43
2022/05/08 06:41:19;;;;;;;6.75;0.90;;;16.00;90.80;;;;;;5016636;28;20049;-42
2022/05/08 06:43:44;;;;;;;8.68;0.77;;;16.20;90.40;;;;;;5014871;28;20070;-45
2022/05/08 06:46:11;;;;;;;7.82;0.75;;;16.30;89.70;;;;;;5016813;28;21263;-44
2022/05/08 06:48:37;;;;;;;14.13;1.13;;;16.40;88.30;;;;;;5016903;28;20728;-43
2022/05/08 06:51:03;;;;;;;10.80;1.50;;;16.90;84.10;;;;;;5021407;28;20430;-45
2022/05/08 06:53:30;;;;;;;9.30;0.70;;;17.10;84.10;;;;;;5015293;28;20107;-43
2022/05/08 06:55:56;;;;;;;8.63;1.30;;;17.40;83.50;;;;;;5018312;28;20500;-43
2022/05/08 06:58:22;;;;;;;6.35;1.77;;;17.40;81.10;;;;;;5017821;28;20076;-46
2022/05/08 07:03:32;;;;;;;8.85;0.75;;;17.80;78.60;;;;;;5016555;28;20055;-43
2022/05/08 07:06:00;;;;;;;8.90;1.63;;;17.90;78.40;;;;;;5017050;28;20038;-44
2022/05/08 07:08:27;;;;;;;8.48;1.08;;;17.90;77.30;;;;;;5016296;28;20045;-46
2022/05/08 07:10:52;;;;;;;9.35;0.95;;;17.90;76.90;;;;;;5016594;28;20410;-45
2022/05/08 07:13:22;;;;;;;7.88;1.08;;;17.90;75.40;;;;;;5018650;28;20176;-43
2022/05/08 07:15:48;;;;;;;9.55;0.90;;;17.90;75.30;;;;;;5016878;28;20065;-44
2022/05/08 07:18:13;;;;;;;11.80;1.17;;;17.70;74.40;;;;;;5018207;28;20092;-45
2022/05/08 07:20:39;;;;;;;13.77;0.88;;;17.40;73.70;;;;;;5019999;28;20034;-45
2022/05/08 07:23:05;;;;;;;5.60;0.63;;;17.60;73.70;;;;;;5016751;28;20065;-45
2022/05/08 07:25:30;;;;;;;11.88;0.77;;;17.70;73.50;;;;;;5015420;28;20052;-48
2022/05/08 07:27:56;;;;;;;5.00;0.80;;;17.70;73.70;;;;;;5017514;28;20747;-46
2022/05/08 07:30:22;;;;;;;11.13;1.42;;;17.90;72.00;;;;;;5019848;28;20041;-45
2022/05/08 07:32:49;;;;;;;7.63;1.35;;;;;;;;;;5017102;28;20099;-45
2022/05/08 07:38:00;;;;;;;5.80;0.93;;;19.50;91.00;;;;;;5017325;28;20052;-44
2022/05/08 07:40:26;;;;;;;12.15;1.10;;;19.90;91.10;;;;;;5017891;28;20038;-42
2022/05/08 07:42:52;;;;;;;7.38;1.02;;;20.30;90.20;;;;;;5018566;28;20045;-45
2022/05/08 07:45:18;;;;;;;5.72;0.68;;;20.70;62.40;;;;;;5016675;28;20064;-44
2022/05/08 07:47:43;;;;;;;8.52;1.20;;;20.30;62.80;;;;;;5018223;28;20037;-50
2022/05/08 07:50:09;;;;;;;4.47;1.10;;;19.60;62.20;;;;;;5016408;28;20049;-44
2022/05/08 07:52:39;;;;;;;6.50;0.80;;;19.10;62.10;;;;;;5018628;28;20037;-43
2022/05/08 07:55:07;;;;;;;5.07;0.82;;;18.90;62.90;;;;;;5015620;28;20049;-47
2022/05/08 07:57:33;;;;;;;11.35;1.30;;;20.20;62.80;;;;;;5019139;28;20041;-43
2022/05/08 07:59:59;;;;;;;11.02;0.85;;;20.20;62.70;;;;;;5016855;28;20037;-43
2022/05/08 08:02:25;;;;;;;6.03;0.70;;;20.60;62.10;;;;;;5017223;28;20087;-43
2022/05/08 08:04:52;;;;;;;5.93;0.85;;;21.60;61.80;;;;;;5018845;28;20033;-43
2022/05/08 08:07:17;;;;;;;5.93;1.08;;;23.40;58.90;;;;;;5015452;28;20489;-46
2022/05/08 08:09:43;;;;;;;5.65;0.95;;;24.90;55.50;;;;;;5019383;28;20041;-43
2022/05/08 08:12:09;;;;;;;7.45;0.90;;;25.90;52.90;;;;;;5016783;28;20056;-41
2022/05/08 08:14:34;;;;;;;7.85;1.13;;;27.20;60.30;;;;;;5015156;28;20041;-42
2022/05/08 08:17:00;;;;;;;8.20;0.85;;;28.10;50.20;;;;;;5017774;28;20040;-43
2022/05/08 08:19:26;;;;;;;6.57;0.60;;;28.00;48.20;;;;;;4992999;28;20128;-41
2022/05/08 08:21:52;;;;;;;8.77;0.95;;;28.00;48.60;;;;;;4990357;28;20049;-40
2022/05/08 08:24:18;;;;;;;9.38;1.95;;;28.10;48.50;;;;;;5016665;28;20053;-41
2022/05/08 08:26:43;;;;;;;6.38;0.82;;;29.30;47.10;;;;;;5019341;28;20136;-42
2022/05/08 08:29:09;;;;;;;11.98;1.20;;;29.60;45.00;;;;;;5017087;28;20037;-44
2022/05/08 08:31:35;;;;;;;9.00;1.15;;;29.90;44.50;;;;;;5016035;28;20051;-42
2022/05/08 08:34:00;;;;;;;4.95;0.82;;;30.30;47.90;;;;;;5016723;28;20037;-44
2022/05/08 08:36:26;;;;;;;7.28;1.05;;;29.90;43.80;;;;;;5007570;28;20029;-41
2022/05/08 08:38:51;;;;;;;8.05;0.77;;;29.90;42.50;;;;;;5017582;28;20406;-42
2022/05/08 08:41:26;;;;;;;6.82;0.70;;;29.80;41.90;;;;;;5016878;28;20768;-41
2022/05/08 08:49:25;;;;;;;8.25;0.60;;;31.90;41.40;;;;;;5015549;28;20512;-44
2022/05/08 08:51:51;;;;;;;3.90;0.63;;;32.60;40.80;;;;;;5032572;28;20045;-43
2022/05/08 08:54:21;;;;;;;8.80;0.77;;;32.70;38.50;;;;;;5019546;28;20068;-43
2022/05/08 08:56:48;;;;;;;7.20;0.85;;;32.00;37.20;;;;;;5017448;28;20038;-42
2022/05/08 08:59:13;;;;;;;6.82;1.23;;;31.80;38.10;;;;;;5017232;28;20034;-42
2022/05/08 09:01:43;;;;;;;7.57;1.25;;;32.30;38.20;;;;;;5018687;28;20559;-41
2022/05/08 09:04:10;;;;;;;5.78;1.00;;;32.80;37.00;;;;;;5017285;28;20448;-42
2022/05/08 09:06:46;;;;;;;8.93;1.25;;;33.00;37.00;;;;;;5016625;28;20037;-46
2022/05/08 09:09:26;;;;;;;5.93;1.10;;;33.60;36.60;;;;;;5016186;28;20048;-45
2022/05/08 09:11:56;;;;;;;7.97;1.02;;;34.30;37.20;;;;;;5017308;28;20068;-43
2022/05/08 09:14:32;;;;;;;7.13;1.15;;;34.40;36.00;;;;;;5018092;28;20037;-42
2022/05/08 09:16:59;;;;;;;9.43;1.15;;;34.60;34.80;;;;;;5015537;28;20584;-41
2022/05/08 09:19:39;;;;;;;9.82;1.20;;;34.90;35.50;;;;;;5014663;28;20045;-43
2022/05/08 09:22:11;;;;;;;8.93;1.42;;;35.10;33.90;;;;;;5018578;28;20046;-42
2022/05/08 09:24:53;;;;;;;7.45;1.02;;;35.30;34.20;;;;;;5032700;28;20053;-44
2022/05/08 09:27:19;;;;;;;7.30;1.10;;;35.90;34.10;;;;;;5016024;28;20181;-46
2022/05/08 09:29:45;;;;;;;8.20;1.05;;;35.90;33.70;;;;;;5018114;28;20619;-42
2022/05/08 09:32:38;;;;;;;6.72;0.98;;;36.20;34.30;;;;;;5015294;28;20045;-41
2022/05/08 09:35:05;;;;;;;5.03;0.93;;;36.40;35.50;;;;;;5016503;28;20048;-42
2022/05/08 09:37:30;;;;;;;7.63;1.23;;;36.80;33.80;;;;;;5013469;28;20045;-41
2022/05/08 09:40:16;;;;;;;5.93;1.00;;;36.90;32.80;;;;;;5017351;28;20084;-41
2022/05/08 09:42:42;;;;;;;7.07;0.90;;;36.90;31.00;;;;;;5013941;28;20045;-43
2022/05/08 09:45:09;;;;;;;6.15;1.35;;;36.50;33.50;;;;;;5014315;28;20505;-42
2022/05/08 09:47:46;;;;;;;7.05;1.00;;;36.30;32.20;;;;;;5017331;28;20059;-43
2022/05/08 09:50:13;;;;;;;7.60;1.08;;;35.80;32.40;;;;;;5016362;28;20516;-44
2022/05/08 09:52:40;;;;;;;4.78;1.02;;;35.60;32.90;;;;;;5022780;28;20045;-44
2022/05/08 09:55:12;;;;;;;4.90;0.80;;;35.70;32.90;;;;;;5020897;28;20112;-42
2022/05/08 09:57:41;;;;;;;6.50;0.95;;;35.80;32.40;;;;;;5020406;28;20377;-43
2022/05/08 10:00:09;;;;;;;5.72;0.90;;;35.80;33.00;;;;;;5018870;28;20084;-46
2022/05/08 10:02:36;;;;;;;7.82;0.88;;;35.50;32.60;;;;;;5021622;28;20030;-44
2022/05/08 10:05:03;;;;;;;8.48;1.40;;;35.20;31.70;;;;;;5020347;28;20102;-43
2022/05/08 10:07:29;;;;;;;8.15;1.02;;;35.00;31.80;;;;;;5022394;28;20041;-44
2022/05/08 10:15:32;;;;;;;6.63;0.90;;;34.40;31.10;;;;;;5018808;28;20092;-49
2022/05/08 10:18:21;;;;;;;7.10;0.77;;;34.00;31.00;;;;;;5021777;28;20033;-43
2022/05/08 10:21:05;;;;;;;8.15;1.23;;;33.70;32.80;;;;;;5011827;28;20048;-42
2022/05/08 10:23:46;;;;;;;5.15;1.05;;;33.50;30.00;;;;;;5021376;28;20044;-43
2022/05/08 10:26:22;;;;;;;6.05;1.02;;;33.50;31.40;;;;;;5017850;28;20433;-44
2022/05/08 10:29:12;;;;;;;6.05;1.00;;;33.30;31.90;;;;;;5001011;28;20042;-41
2022/05/08 10:31:48;;;;;;;7.22;1.05;;;33.60;32.00;;;;;;5019485;28;20192;-43
2022/05/08 10:34:15;;;;;;;8.27;1.15;;;33.60;32.40;;;;;;5035955;28;20054;-46
2022/05/08 10:37:12;;;;;;;7.05;1.00;;;33.70;32.20;;;;;;5019034;28;20041;-42
2022/05/08 10:39:42;;;;;;;5.63;1.23;;;33.20;30.00;;;;;;5018762;28;20084;-41
2022/05/08 10:42:41;;;;;;;6.13;0.90;;;33.20;30.20;;;;;;5018401;28;20068;-44
2022/05/08 10:45:33;;;;;;;5.60;0.90;;;32.30;31.40;;;;;;5016561;28;20056;-43
2022/05/08 10:48:18;;;;;;;8.10;0.90;;;30.60;33.20;;;;;;5015954;28;20057;-43
2022/05/08 10:50:51;;;;;;;7.55;0.80;;;28.50;33.10;;;;;;5019075;28;20046;-41
2022/05/08 10:53:28;;;;;;;8.70;1.55;;;26.90;34.30;;;;;;5017070;28;20036;-40
2022/05/08 10:56:06;;;;;;;7.65;0.70;;;25.60;34.70;;;;;;5018173;28;20045;-41
2022/05/08 10:58:33;;;;;;;7.78;0.93;;;24.20;36.80;;;;;;5017220;28;20095;-40
2022/05/08 11:01:02;;;;;;;8.23;1.13;;;22.90;48.80;;;;;;5018902;28;20048;-41
2022/05/08 11:03:29;;;;;;;7.55;1.67;;;21.90;42.80;;;;;;5015533;28;20045;-40
2022/05/08 11:05:56;;;;;;;8.77;1.35;;;21.20;42.10;;;;;;5018006;28;20041;-40
2022/05/08 11:08:28;;;;;;;7.05;0.98;;;20.80;44.90;;;;;;5016685;28;20033;-41
2022/05/08 11:11:09;;;;;;;8.35;1.02;;;20.50;43.90;;;;;;5017026;28;20045;-45
2022/05/08 11:13:46;;;;;;;9.85;1.50;;;20.10;43.60;;;;;;5020872;28;20052;-42
2022/05/08 11:16:15;;;;;;;14.18;1.63;;;19.80;43.80;;;;;;5019229;28;20401;-39
2022/05/08 11:18:41;;;;;;;8.20;1.27;;;19.30;44.50;;;;;;5015534;28;20053;-40
2022/05/08 11:21:10;;;;;;;5.53;1.02;;;18.90;45.20;;;;;;5017858;28;20103;-41
2022/05/08 11:23:44;;;;;;;9.30;1.00;;;18.20;48.10;;;;;;5019458;28;20044;-39
2022/05/08 11:26:11;;;;;;;9.38;1.50;;;18.40;52.50;;;;;;5017909;28;20095;-41
2022/05/08 11:28:46;;;;;;;5.53;0.95;;;18.00;52.70;;;;;;5017998;28;20117;-42
2022/05/08 11:31:14;;;;;;;7.60;1.00;;;17.80;46.50;;;;;;5017598;28;20095;-39
2022/05/08 11:36:27;;;;;;;10.60;0.82;;;17.50;47.80;;;;;;5016535;28;20119;-41
2022/05/08 11:38:57;;;;;;;11.77;1.02;;;17.40;48.70;;;;;;5018851;28;20042;-40
2022/05/08 11:41:34;;;;;;;6.20;1.08;;;17.40;50.60;;;;;;5016228;28;20033;-41
2022/05/08 11:44:13;;;;;;;6.72;1.00;;;17.40;50.30;;;;;;5018689;28;20481;-39
2022/05/08 11:47:06;;;;;;;7.78;1.90;;;17.30;49.90;;;;;;5018096;28;20064;-41
2022/05/08 11:49:32;;;;;;;11.05;1.00;;;17.00;48.90;;;;;;5015611;28;20050;-41
2022/05/08 11:52:01;;;;;;;10.15;0.95;;;16.90;48.90;;;;;;5017690;28;20504;-42
2022/05/08 11:54:32;;;;;;;6.22;0.85;;;16.70;48.10;;;;;;5017421;28;20030;-43
2022/05/08 11:57:14;;;;;;;8.60;1.10;;;16.50;48.50;;;;;;5018302;28;20037;-43
2022/05/08 11:59:41;;;;;;;4.85;0.73;;;16.20;50.20;;;;;;5015732;28;20052;-40
2022/05/08 12:02:08;;;;;;;5.55;0.77;;;16.00;50.10;;;;;;5017213;28;20052;-41
2022/05/08 12:04:34;;;;;;;6.05;1.27;;;16.00;50.90;;;;;;5017125;28;20084;-48
2022/05/08 12:07:09;;;;;;;7.60;1.35;;;16.00;50.50;;;;;;5003449;28;20034;-46
2022/05/08 12:09:39;;;;;;;5.53;0.73;;;16.10;50.70;;;;;;5017608;28;20037;-40
2022/05/08 12:12:22;;;;;;;8.68;1.23;;;16.20;51.10;;;;;;5014580;28;20041;-45
2022/05/08 12:14:48;;;;;;;3.53;0.57;;;16.30;52.60;;;;;;5018416;28;20044;-41
2022/05/08 12:17:14;;;;;;;6.00;1.20;;;16.30;51.20;;;;;;5017076;28;20127;-42
2022/05/08 12:19:56;;;;;;;7.93;1.30;;;16.40;51.10;;;;;;5016541;28;20174;-40
2022/05/08 12:22:26;;;;;;;8.90;1.20;;;16.30;51.10;;;;;;5015829;28;20103;-45
2022/05/08 12:24:53;;;;;;;10.40;1.35;;;16.30;51.80;;;;;;5014740;28;20072;-40
2022/05/08 12:27:19;;;;;;;7.10;1.10;;;16.30;51.70;;;;;;5017553;28;20053;-39
2022/05/08 12:29:46;;;;;;;6.75;0.80;;;16.40;51.60;;;;;;5015491;28;20060;-42
2022/05/08 12:32:16;;;;;;;5.53;0.80;;;16.40;51.50;;;;;;5015633;28;20041;-39
2022/05/08 12:34:44;;;;;;;7.50;1.02;;;16.40;51.50;;;;;;5018877;28;20076;-41
2022/05/08 12:37:11;;;;;;;6.85;1.05;;;16.40;52.00;;;;;;5018222;28;20057;-40
2022/05/08 12:39:38;;;;;;;6.55;1.38;;;16.60;50.50;;;;;;5015268;28;20107;-41
2022/05/08 12:42:04;;;;;;;6.55;0.65;;;15.30;50.20;;;;;;5018262;28;20488;-41
2022/05/08 12:44:30;;;;;;;11.63;1.25;;;16.20;49.60;;;;;;5014432;28;20065;-40
2022/05/08 12:46:56;;;;;;;8.32;1.05;;;16.20;50.10;;;;;;5016684;28;20120;-41
2022/05/08 12:49:22;;;;;;;8.95;0.73;;;16.00;48.70;;;;;;5018912;28;20468;-40
2022/05/08 12:51:47;;;;;;;13.60;1.70;;;15.90;48.90;;;;;;5016006;28;20446;-43
2022/05/08 12:54:13;;;;;;;11.15;1.17;;;15.70;49.20;;;;;;5016688;28;20037;-40
2022/05/08 12:56:40;;;;;;;8.93;0.90;;;15.70;50.40;;;;;;5017966;28;20029;-40
2022/05/08 13:01:50;;;;;;;7.85;1.05;;;15.80;52.30;;;;;;5014147;28;20098;-40
2022/05/08 13:04:16;;;;;;;9.07;1.35;;;15.90;53.10;;;;;;5014084;28;20045;-41
2022/05/08 13:06:41;;;;;;;9.65;0.98;;;16.00;53.80;;;;;;5015625;28;20048;-40
2022/05/08 13:09:08;;;;;;;5.93;1.25;;;16.00;53.90;;;;;;5015534;28;20572;-49
2022/05/08 13:11:35;;;;;;;5.70;1.25;;;16.10;52.90;;;;;;5018189;28;20112;-40
2022/05/08 13:14:01;;;;;;;6.32;0.90;;;16.10;53.80;;;;;;5014736;28;20037;-41
2022/05/08 13:16:27;;;;;;;8.00;1.00;;;16.00;52.70;;;;;;5016110;28;20578;-40
2022/05/08 13:18:53;;;;;;;6.72;0.82;;;16.00;52.70;;;;;;5016668;28;20066;-40
2022/05/08 13:21:19;;;;;;;4.90;0.93;;;16.10;53.10;;;;;;5017463;28;20111;-48
2022/05/08 13:23:45;;;;;;;7.75;0.82;;;16.10;52.40;;;;;;5018843;28;20037;-42
2022/05/08 13:26:11;;;;;;;10.18;1.30;;;16.00;51.80;;;;;;5020660;28;20045;-40